Time;durP1;ratioP1;P1;durP2;ratioP2;P2;SDS_P1;SDS_P2;PMS_P1;PMS_P2;Temp;Humidity;BMP_temperature;BMP_pressure;BME280_temperature;BME280_humidity;BME280_pressure;Samples;Min_cycle;Max_cycle;Signal;HPM_P1;HPM_P2
2021/07/22 00:00:25;;;;;;;32.15;18.27;;;;;;;16.96;79.01;102402.19;4901148;29;20031;-90
2021/07/22 00:02:51;;;;;;;31.95;18.63;;;;;;;16.88;79.28;102408.78;4897930;29;20039;-91
2021/07/22 00:05:18;;;;;;;31.77;17.52;;;;;;;16.89;79.27;102415.88;4886337;29;20040;-90
2021/07/22 00:07:46;;;;;;;38.53;18.77;;;;;;;16.85;79.60;102408.13;4902969;29;20047;-89
2021/07/22 00:10:12;;;;;;;37.00;18.95;;;;;;;16.82;79.43;102417.13;4933088;29;20040;-90
2021/07/22 00:12:38;;;;;;;32.35;18.42;;;;;;;16.81;79.72;102402.06;4902542;29;20032;-89
2021/07/22 00:15:07;;;;;;;31.98;17.98;;;;;;;16.86;79.47;102407.16;4916991;29;20055;-92
2021/07/22 00:17:33;;;;;;;30.90;17.88;;;;;;;16.80;79.67;102403.88;4901353;29;20035;-92
2021/07/22 00:20:02;;;;;;;31.85;17.88;;;;;;;16.76;79.70;102410.34;4900625;29;20044;-90
2021/07/22 00:22:28;;;;;;;34.08;18.27;;;;;;;16.68;79.77;102401.88;4903605;29;20043;-92
2021/07/22 00:24:53;;;;;;;29.52;16.58;;;;;;;16.70;80.06;102394.66;4915788;29;20499;-90
2021/07/22 00:27:20;;;;;;;34.33;18.20;;;;;;;16.69;79.83;102408.97;4901852;29;20032;-91
2021/07/22 00:29:46;;;;;;;29.55;17.33;;;;;;;16.68;80.06;102404.53;4903072;29;20024;-91
2021/07/22 00:32:12;;;;;;;27.45;17.10;;;;;;;16.60;79.95;102412.13;4919743;29;20035;-91
2021/07/22 00:34:37;;;;;;;27.30;15.93;;;;;;;16.70;79.67;102405.34;4872356;24;20049;-81
2021/07/22 00:37:03;;;;;;;27.00;16.02;;;;;;;16.70;79.44;102402.66;4878531;29;20029;-80
2021/07/22 00:39:28;;;;;;;27.20;16.35;;;;;;;16.72;79.10;102406.13;4878762;29;20041;-81
2021/07/22 00:41:54;;;;;;;26.10;15.65;;;;;;;16.60;79.82;102399.63;4878868;29;20028;-82
2021/07/22 00:44:19;;;;;;;23.73;15.05;;;;;;;16.64;79.18;102397.66;4880114;29;20096;-82
2021/07/22 00:46:45;;;;;;;28.27;15.55;;;;;;;16.59;79.45;102395.22;4879998;29;20037;-79
2021/07/22 00:49:11;;;;;;;22.50;14.30;;;;;;;16.66;79.09;102393.09;4879885;29;20033;-82
2021/07/22 00:51:39;;;;;;;25.13;14.32;;;;;;;16.64;78.85;102397.66;4879768;29;20032;-81
2021/07/22 00:54:05;;;;;;;26.60;15.02;;;;;;;16.64;78.77;102397.66;4879897;29;20028;-81
2021/07/22 00:56:31;;;;;;;23.48;14.27;;;;;;;16.67;78.39;102395.69;4879537;29;20032;-80
2021/07/22 00:58:56;;;;;;;22.77;14.20;;;;;;;16.55;78.79;102399.03;4879718;29;20044;-81
2021/07/22 01:01:22;;;;;;;21.70;13.30;;;;;;;16.63;77.55;102396.78;4879617;29;20017;-81
2021/07/22 01:03:47;;;;;;;23.50;12.95;;;;;;;16.62;77.86;102391.53;4879766;29;20037;-81
2021/07/22 01:06:13;;;;;;;23.30;13.38;;;;;;;16.72;77.52;102390.09;4879717;29;20039;-81
2021/07/22 01:08:38;;;;;;;20.38;13.45;;;;;;;16.54;77.95;102392.81;4879719;29;20044;-80
2021/07/22 01:11:03;;;;;;;19.98;13.57;;;;;;;16.50;78.22;102396.59;4879643;29;20033;-81
2021/07/22 01:13:29;;;;;;;22.67;13.00;;;;;;;16.56;77.74;102390.06;4879633;29;20104;-81
2021/07/22 01:15:54;;;;;;;21.02;12.52;;;;;;;16.47;78.04;102391.41;4879449;29;20037;-81
2021/07/22 01:18:20;;;;;;;20.98;13.38;;;;;;;16.40;78.28;102395.34;4879725;29;20029;-80
2021/07/22 01:20:45;;;;;;;18.80;13.13;;;;;;;16.47;77.95;102396.75;4879337;29;20096;-80
2021/07/22 01:23:11;;;;;;;22.42;12.75;;;;;;;16.39;78.14;102398.97;4879467;29;20029;-80
2021/07/22 01:25:36;;;;;;;19.83;12.48;;;;;;;16.51;77.56;102398.31;4879993;29;20037;-81
2021/07/22 01:28:01;;;;;;;19.10;12.02;;;;;;;16.47;77.68;102409.25;4879380;29;20081;-80
2021/07/22 01:30:27;;;;;;;23.67;12.52;;;;;;;16.45;77.33;102403.97;4880446;29;20041;-81
2021/07/22 01:32:52;;;;;;;21.13;13.05;;;;;;;16.43;77.26;102405.84;4884841;29;20081;-82
2021/07/22 01:35:18;;;;;;;17.05;11.25;;;;;;;16.46;76.78;102395.00;4901936;29;20055;-82
2021/07/22 01:37:44;;;;;;;21.73;12.80;;;;;;;16.52;76.44;102393.84;4904453;29;20040;-82
2021/07/22 01:40:10;;;;;;;15.95;11.57;;;;;;;16.47;76.41;102398.56;4904676;29;20025;-81
2021/07/22 01:42:36;;;;;;;17.85;11.55;;;;;;;16.53;76.00;102395.56;4905082;29;20494;-81
2021/07/22 01:45:03;;;;;;;20.02;11.90;;;;;;;16.52;75.67;102389.34;4905121;29;20098;-82
2021/07/22 01:47:32;;;;;;;16.13;10.85;;;;;;;16.48;75.44;102390.47;4906434;29;20128;-80
2021/07/22 01:49:57;;;;;;;18.00;11.23;;;;;;;16.43;75.55;102392.50;4892732;29;20031;-80
2021/07/22 01:52:23;;;;;;;18.65;11.82;;;;;;;16.53;75.14;102390.22;4885397;29;20025;-82
2021/07/22 01:54:48;;;;;;;18.23;11.45;;;;;;;16.51;74.98;102389.44;4901786;29;20465;-81
2021/07/22 01:57:14;;;;;;;19.20;11.55;;;;;;;16.38;75.47;102392.75;4901342;29;20029;-79
2021/07/22 01:59:39;;;;;;;16.27;11.20;;;;;;;16.30;75.67;102390.50;4900374;29;20035;-80
2021/07/22 02:02:05;;;;;;;18.35;11.85;;;;;;;16.24;76.06;102390.81;4901253;29;20036;-82
2021/07/22 02:04:31;;;;;;;19.05;11.45;;;;;;;16.18;76.19;102389.34;4901409;29;20128;-81
2021/07/22 02:06:57;;;;;;;16.48;10.88;;;;;;;16.34;75.74;102387.66;4901724;29;20119;-80
2021/07/22 02:09:22;;;;;;;18.05;11.88;;;;;;;16.13;76.58;102382.53;4901516;29;20545;-80
2021/07/22 02:11:48;;;;;;;19.63;12.07;;;;;;;16.10;76.46;102383.53;4901525;29;20028;-81
2021/07/22 02:14:14;;;;;;;19.13;11.93;;;;;;;16.15;75.99;102384.16;4902049;29;20080;-81
2021/07/22 02:16:39;;;;;;;19.33;11.55;;;;;;;16.25;75.61;102381.88;4902176;29;20036;-81
2021/07/22 02:19:05;;;;;;;16.77;11.57;;;;;;;16.24;75.52;102374.81;4901402;29;20033;-82
2021/07/22 02:21:30;;;;;;;17.55;10.88;;;;;;;16.25;75.94;102383.69;4901465;29;20036;-79
2021/07/22 02:23:56;;;;;;;18.67;11.52;;;;;;;16.25;75.80;102384.56;4901324;29;20040;-80
2021/07/22 02:26:21;;;;;;;18.67;11.07;;;;;;;16.19;75.66;102390.22;4904034;29;20039;-82
2021/07/22 02:28:47;;;;;;;18.15;11.32;;;;;;;16.17;75.73;102390.28;4890729;29;20420;-81
2021/07/22 02:31:12;;;;;;;16.73;11.05;;;;;;;16.29;75.55;102387.91;4902036;29;20041;-82
2021/07/22 02:33:38;;;;;;;19.13;11.10;;;;;;;16.15;75.93;102389.50;4884269;29;20071;-81
2021/07/22 02:36:03;;;;;;;17.20;11.52;;;;;;;16.08;76.23;102388.13;4900905;29;20482;-81
2021/07/22 02:38:29;;;;;;;18.27;11.80;;;;;;;16.12;76.03;102383.47;4900783;29;20041;-81
2021/07/22 02:40:55;;;;;;;18.00;11.32;;;;;;;16.09;76.19;102386.28;4901008;29;20038;-81
2021/07/22 02:43:20;;;;;;;18.92;11.40;;;;;;;16.02;76.05;102385.75;4900680;29;20030;-81
2021/07/22 02:45:46;;;;;;;18.92;11.25;;;;;;;16.01;76.54;102384.00;4900736;29;20425;-82
2021/07/22 02:48:11;;;;;;;19.02;11.18;;;;;;;15.89;76.81;102391.66;4900666;29;20028;-80
2021/07/22 02:50:36;;;;;;;19.40;12.00;;;;;;;15.85;77.08;102394.56;4900494;29;20024;-82
2021/07/22 02:53:02;;;;;;;19.27;11.63;;;;;;;15.86;77.08;102383.81;4900474;29;20060;-81
2021/07/22 02:55:28;;;;;;;18.92;11.10;;;;;;;15.81;77.08;102389.38;4900185;29;20056;-79
2021/07/22 02:57:53;;;;;;;18.77;11.73;;;;;;;15.91;76.90;102386.25;4900236;29;20107;-80
2021/07/22 03:00:19;;;;;;;20.92;11.75;;;;;;;15.75;77.45;102388.84;4899340;29;20033;-80
2021/07/22 03:02:44;;;;;;;20.33;11.60;;;;;;;15.78;77.31;102389.53;4900336;29;20084;-81
2021/07/22 03:05:10;;;;;;;17.23;11.07;;;;;;;15.79;77.21;102385.94;4900521;29;20032;-81
2021/07/22 03:07:35;;;;;;;19.52;12.15;;;;;;;15.82;76.98;102390.25;4900638;29;20040;-80
2021/07/22 03:10:01;;;;;;;19.88;11.50;;;;;;;15.82;77.11;102392.94;4901728;29;20046;-81
2021/07/22 03:12:26;;;;;;;17.98;11.52;;;;;;;15.68;77.71;102386.50;4901711;29;20025;-81
2021/07/22 03:14:52;;;;;;;19.92;11.50;;;;;;;15.73;77.42;102394.28;4900513;29;20033;-79
2021/07/22 03:17:17;;;;;;;18.20;11.45;;;;;;;15.72;77.38;102389.84;4901214;29;20040;-81
2021/07/22 03:19:42;;;;;;;18.98;11.65;;;;;;;15.67;77.42;102382.09;4901015;29;20036;-81
2021/07/22 03:22:08;;;;;;;21.13;12.27;;;;;;;15.67;77.81;102387.41;4902637;29;20029;-81
2021/07/22 03:24:34;;;;;;;19.58;11.20;;;;;;;15.63;77.81;102385.84;4902113;29;20099;-81
2021/07/22 03:26:59;;;;;;;20.08;12.18;;;;;;;15.68;77.54;102399.84;4883527;29;20035;-81
2021/07/22 03:29:25;;;;;;;21.85;11.13;;;;;;;15.70;77.29;102389.09;4900492;29;20028;-81
2021/07/22 03:31:50;;;;;;;22.38;12.00;;;;;;;15.70;77.25;102397.09;4899855;29;20420;-80
2021/07/22 03:34:17;;;;;;;20.40;11.30;;;;;;;15.65;77.33;102394.66;4899660;29;20060;-81
2021/07/22 03:36:44;;;;;;;22.90;11.38;;;;;;;15.64;77.55;102400.06;4899830;29;20076;-80
2021/07/22 03:39:10;;;;;;;20.48;12.43;;;;;;;15.66;77.36;102395.50;4899472;29;20044;-81
2021/07/22 03:41:36;;;;;;;21.38;12.40;;;;;;;15.70;77.04;102389.09;4882746;29;20024;-81
2021/07/22 03:44:01;;;;;;;18.55;10.00;;;;;;;15.65;77.09;102391.09;4899358;29;20033;-80
2021/07/22 03:46:27;;;;;;;21.17;10.82;;;;;;;15.62;77.08;102394.81;4899568;29;20055;-81
2021/07/22 03:48:52;;;;;;;19.15;11.07;;;;;;;15.54;76.63;102386.31;4899449;29;20037;-79
2021/07/22 03:51:18;;;;;;;15.63;9.98;;;;;;;15.56;76.54;102387.94;4899547;29;20032;-80
2021/07/22 03:53:43;;;;;;;19.40;10.50;;;;;;;15.41;76.96;102386.03;4899329;29;20047;-80
2021/07/22 03:56:09;;;;;;;19.40;9.93;;;;;;;15.38;76.75;102391.53;4899230;29;20032;-80
2021/07/22 03:58:34;;;;;;;16.38;10.40;;;;;;;15.35;76.71;102386.34;4898939;29;20025;-81
2021/07/22 04:00:59;;;;;;;16.98;10.35;;;;;;;15.40;76.56;102384.34;4899066;29;20036;-81
2021/07/22 04:03:25;;;;;;;18.20;9.93;;;;;;;15.45;76.12;102390.31;4899437;29;20091;-83
2021/07/22 04:05:51;;;;;;;17.98;9.88;;;;;;;15.42;75.91;102390.47;4897648;29;20040;-81
2021/07/22 04:08:16;;;;;;;17.73;10.15;;;;;;;15.43;75.91;102386.84;4899318;29;20119;-81
2021/07/22 04:10:42;;;;;;;17.92;10.10;;;;;;;15.32;75.89;102390.03;4898702;29;20108;-82
2021/07/22 04:13:08;;;;;;;14.85;9.20;;;;;;;15.44;75.88;102391.22;4898577;29;20032;-80
2021/07/22 04:15:34;;;;;;;16.73;9.68;;;;;;;15.57;75.09;102394.16;4898865;29;20063;-80
2021/07/22 04:17:59;;;;;;;17.52;9.88;;;;;;;15.66;75.03;102398.16;4898827;29;20028;-81
2021/07/22 04:20:25;;;;;;;14.95;8.77;;;;;;;15.63;74.84;102393.84;4898568;29;20037;-83
2021/07/22 04:22:51;;;;;;;16.63;9.23;;;;;;;15.72;74.77;102394.34;4898955;29;20024;-82
2021/07/22 04:25:16;;;;;;;13.52;8.93;;;;;;;15.74;74.29;102395.09;4899020;29;20096;-83
2021/07/22 04:27:42;;;;;;;14.55;9.02;;;;;;;15.74;73.89;102395.97;4898515;29;20036;-81
2021/07/22 04:30:08;;;;;;;16.23;8.63;;;;;;;15.85;73.60;102398.09;4898814;29;20032;-82
2021/07/22 04:32:34;;;;;;;14.30;8.85;;;;;;;15.97;72.94;102401.97;4898637;29;20091;-81
2021/07/22 04:35:01;;;;;;;13.43;8.70;;;;;;;16.10;72.40;102398.69;4922578;23;20059;-82
2021/07/22 04:37:26;;;;;;;13.27;8.18;;;;;;;16.07;72.90;102394.38;4901028;29;20723;-82
2021/07/22 04:39:52;;;;;;;14.65;8.43;;;;;;;16.05;72.44;102401.59;4900444;29;20130;-81
2021/07/22 04:42:17;;;;;;;14.60;8.05;;;;;;;16.05;72.77;102415.78;4917512;29;20447;-81
2021/07/22 04:44:43;;;;;;;12.20;8.10;;;;;;;16.11;72.31;102406.63;4900987;29;20527;-81
2021/07/22 04:47:08;;;;;;;11.23;8.13;;;;;;;16.21;71.86;102411.50;4917672;29;20043;-82
2021/07/22 04:49:33;;;;;;;13.35;8.50;;;;;;;16.34;71.22;102406.34;4900996;29;20032;-81
2021/07/22 04:51:59;;;;;;;12.55;7.97;;;;;;;16.29;71.46;102411.94;4917487;29;20391;-81
2021/07/22 04:54:24;;;;;;;12.55;8.07;;;;;;;16.23;71.46;102415.78;4900361;29;20036;-82
2021/07/22 04:56:50;;;;;;;12.88;7.75;;;;;;;16.48;70.73;102413.63;4917139;29;20064;-82
2021/07/22 04:59:16;;;;;;;14.15;7.65;;;;;;;16.62;70.17;102407.53;4916791;29;20058;-83
2021/07/22 05:01:41;;;;;;;11.77;7.47;;;;;;;16.59;69.93;102402.38;4917274;29;20474;-82
2021/07/22 05:04:07;;;;;;;12.25;7.35;;;;;;;16.61;70.00;102405.81;4917081;29;20098;-81
2021/07/22 05:06:35;;;;;;;10.05;7.28;;;;;;;16.64;69.83;102414.53;4916887;29;20028;-80
2021/07/22 05:09:01;;;;;;;12.57;7.60;;;;;;;16.72;69.46;102413.25;4917364;29;20464;-81
2021/07/22 05:11:26;;;;;;;9.48;6.93;;;;;;;16.62;69.52;102418.22;4917451;29;20035;-81
2021/07/22 05:13:52;;;;;;;12.80;7.35;;;;;;;16.78;69.30;102411.13;4916934;29;20029;-81
2021/07/22 05:16:17;;;;;;;10.38;7.40;;;;;;;16.87;69.13;102412.41;4917691;29;20036;-82
2021/07/22 05:18:43;;;;;;;12.52;7.25;;;;;;;16.98;68.55;102418.97;4917067;29;20498;-82
2021/07/22 05:21:08;;;;;;;9.80;6.97;;;;;;;17.15;68.18;102413.59;4917268;29;20085;-83
2021/07/22 05:23:41;;;;;;;13.02;7.30;;;;;;;16.97;68.41;102407.44;4920293;29;20083;-81
2021/07/22 05:26:10;;;;;;;9.93;6.75;;;;;;;17.21;67.38;102411.53;4904350;29;20447;-82
2021/07/22 05:28:39;;;;;;;12.95;7.50;;;;;;;17.36;67.05;102416.00;4920780;29;20079;-81
2021/07/22 05:31:07;;;;;;;12.70;7.00;;;;;;;17.28;67.37;102413.75;4903948;29;20032;-81
2021/07/22 05:33:33;;;;;;;10.02;7.20;;;;;;;17.27;67.47;102416.53;4920917;29;20055;-81
2021/07/22 05:36:03;;;;;;;9.73;6.75;;;;;;;17.38;66.83;102424.81;4905262;29;20051;-81
2021/07/22 05:38:32;;;;;;;8.80;6.55;;;;;;;17.60;66.56;102425.38;4905182;29;20034;-81
2021/07/22 05:41:04;;;;;;;12.32;7.55;;;;;;;17.67;66.10;102424.06;4905236;29;20032;-81
2021/07/22 05:43:30;;;;;;;9.88;6.50;;;;;;;17.68;66.48;102420.44;4923958;29;20075;-81
2021/07/22 05:45:56;;;;;;;10.55;6.72;;;;;;;17.64;66.25;102424.22;4927264;29;20032;-82
2021/07/22 05:48:21;;;;;;;10.43;6.38;;;;;;;17.70;65.88;102423.88;4927190;29;20149;-81
2021/07/22 05:50:47;;;;;;;11.02;6.70;;;;;;;17.62;66.13;102424.31;4927941;29;20043;-81
2021/07/22 05:53:13;;;;;;;9.20;6.72;;;;;;;17.74;65.59;102417.41;4927189;29;20032;-82
2021/07/22 05:55:38;;;;;;;11.77;6.80;;;;;;;17.73;65.84;102417.50;4927383;29;20035;-81
2021/07/22 05:58:04;;;;;;;11.13;6.70;;;;;;;18.15;64.75;102412.38;4910520;29;20383;-81
2021/07/22 06:00:29;;;;;;;9.68;6.70;;;;;;;17.78;65.89;102415.41;4920367;29;20079;-81
2021/07/22 06:02:55;;;;;;;9.85;6.30;;;;;;;18.05;64.89;102412.03;4903268;29;20057;-80
2021/07/22 06:05:20;;;;;;;9.45;6.55;;;;;;;18.24;63.98;102408.28;4920260;29;20024;-82
2021/07/22 06:07:46;;;;;;;9.43;5.97;;;;;;;18.36;64.08;102414.69;4920191;29;20060;-82
2021/07/22 06:10:14;;;;;;;8.73;6.20;;;;;;;18.16;64.40;102416.78;4920173;29;20032;-81
2021/07/22 06:12:40;;;;;;;13.10;6.30;;;;;;;18.27;64.00;102424.16;4920055;29;20042;-82
2021/07/22 06:15:06;;;;;;;10.88;6.15;;;;;;;18.55;63.53;102419.78;4920035;29;20083;-82
2021/07/22 06:17:35;;;;;;;11.93;6.75;;;;;;;18.68;63.57;102420.75;4921131;29;20028;-81
2021/07/22 06:20:01;;;;;;;9.35;6.22;;;;;;;18.64;63.35;102424.56;4920438;29;20111;-81
2021/07/22 06:22:26;;;;;;;8.65;6.50;;;;;;;19.01;62.23;102428.56;4919859;29;20367;-82
2021/07/22 06:24:51;;;;;;;8.00;5.68;;;;;;;18.89;61.41;102419.50;4919750;29;20032;-82
2021/07/22 06:27:17;;;;;;;10.00;5.93;;;;;;;19.02;61.13;102423.09;4919814;29;20034;-82
2021/07/22 06:29:42;;;;;;;11.68;6.15;;;;;;;19.30;60.65;102423.16;4919602;29;20038;-82
2021/07/22 06:32:08;;;;;;;7.43;5.47;;;;;;;19.03;61.33;102427.50;4919940;29;20028;-82
2021/07/22 06:34:33;;;;;;;10.75;5.60;;;;;;;19.45;59.95;102423.97;4901535;29;20055;-82
2021/07/22 06:36:59;;;;;;;7.57;5.88;;;;;;;19.49;59.92;102419.25;4919782;29;20063;-82
2021/07/22 06:39:24;;;;;;;8.07;5.75;;;;;;;19.54;59.98;102420.69;4902551;29;20032;-82
2021/07/22 06:41:55;;;;;;;8.07;5.65;;;;;;;19.57;59.84;102418.75;4919385;29;20106;-83
2021/07/22 06:44:20;;;;;;;6.90;5.57;;;;;;;19.58;59.92;102417.81;4903036;29;20444;-82
2021/07/22 06:46:46;;;;;;;7.68;5.47;;;;;;;19.69;59.19;102419.75;4902452;29;20135;-80
2021/07/22 06:49:12;;;;;;;8.27;4.70;;;;;;;19.70;58.39;102422.34;4919218;29;20031;-81
2021/07/22 06:51:38;;;;;;;8.30;4.80;;;;;;;19.75;58.87;102420.19;4902193;29;20487;-82
2021/07/22 06:54:05;;;;;;;6.90;5.07;;;;;;;19.57;59.28;102421.41;4919182;29;20031;-81
2021/07/22 06:56:32;;;;;;;7.32;4.65;;;;;;;19.55;58.83;102425.06;4901974;29;20028;-81
2021/07/22 06:58:57;;;;;;;9.32;4.97;;;;;;;20.36;55.89;102420.63;4918896;29;20036;-81
2021/07/22 07:01:23;;;;;;;6.53;4.78;;;;;;;20.48;55.90;102426.94;4919105;29;20036;-82
2021/07/22 07:03:49;;;;;;;6.03;4.65;;;;;;;20.77;54.80;102432.09;4918913;29;20047;-81
2021/07/22 07:06:14;;;;;;;8.25;5.40;;;;;;;20.72;55.17;102431.56;4901949;29;20028;-81
2021/07/22 07:08:39;;;;;;;6.25;4.70;;;;;;;20.61;55.15;102430.50;4901837;29;20036;-81
2021/07/22 07:11:08;;;;;;;6.75;5.20;;;;;;;20.76;54.76;102431.22;4919059;29;20043;-81
2021/07/22 07:13:34;;;;;;;5.70;4.68;;;;;;;20.65;54.95;102429.31;4918782;29;20036;-81
2021/07/22 07:16:02;;;;;;;8.65;5.18;;;;;;;20.49;55.51;102428.69;4901981;29;20099;-83
2021/07/22 07:18:28;;;;;;;7.70;5.07;;;;;;;20.13;56.15;102426.63;4886611;29;20342;-81
2021/07/22 07:20:53;;;;;;;5.57;4.65;;;;;;;20.64;54.86;102424.03;4918607;29;20024;-81
2021/07/22 07:23:19;;;;;;;7.07;4.70;;;;;;;20.57;54.95;102437.06;4918641;29;20472;-81
2021/07/22 07:25:44;;;;;;;7.70;4.88;;;;;;;20.89;54.50;102431.22;4918603;29;20587;-81
2021/07/22 07:28:09;;;;;;;6.15;4.50;;;;;;;21.23;52.91;102438.66;4918494;29;20032;-81
2021/07/22 07:30:35;;;;;;;6.10;4.72;;;;;;;21.40;52.52;102423.13;4918326;29;20034;-81
2021/07/22 07:33:00;;;;;;;6.13;4.93;;;;;;;21.11;53.07;102429.69;4918098;29;20036;-81
2021/07/22 07:35:26;;;;;;;6.63;4.70;;;;;;;21.40;52.23;102433.88;4918346;29;20036;-81
2021/07/22 07:37:51;;;;;;;6.90;4.85;;;;;;;20.58;54.48;102435.22;4885890;29;20042;-81
2021/07/22 07:40:17;;;;;;;6.55;4.90;;;;;;;21.75;52.33;102427.66;4918117;29;20111;-81
2021/07/22 07:42:42;;;;;;;13.88;4.70;;;;;;;20.78;53.46;102440.06;4918225;29;20040;-81
2021/07/22 07:45:08;;;;;;;7.85;5.65;;;;;;;20.93;53.47;102431.88;4917730;29;20028;-82
2021/07/22 07:47:34;;;;;;;7.82;5.10;;;;;;;20.88;53.53;102429.47;4918165;29;20035;-82
2021/07/22 07:50:08;;;;;;;7.00;4.63;;;;;;;21.29;52.66;102440.91;4917979;29;20027;-81
2021/07/22 07:52:36;;;;;;;6.28;4.85;;;;;;;20.98;53.71;102439.59;4917917;29;20039;-81
2021/07/22 07:55:03;;;;;;;6.85;5.43;;;;;;;21.09;53.68;102437.00;4901126;29;20387;-81
2021/07/22 07:57:28;;;;;;;7.32;4.97;;;;;;;20.91;53.60;102445.41;4918025;29;20468;-81
2021/07/22 07:59:54;;;;;;;7.00;5.25;;;;;;;21.02;53.55;102441.94;4918021;29;20039;-82
2021/07/22 08:02:19;;;;;;;8.75;5.50;;;;;;;21.34;52.69;102440.56;4918114;29;20105;-81
2021/07/22 08:04:45;;;;;;;5.32;4.82;;;;;;;21.54;52.54;102438.25;4917811;29;20043;-80
2021/07/22 08:07:10;;;;;;;8.13;4.88;;;;;;;21.75;51.21;102426.81;4917958;29;20024;-81
2021/07/22 08:09:36;;;;;;;7.13;5.13;;;;;;;21.58;51.10;102436.16;4917882;29;20050;-81
2021/07/22 08:12:02;;;;;;;6.90;5.22;;;;;;;21.29;53.02;102437.34;4917755;29;20066;-82
2021/07/22 08:14:29;;;;;;;6.60;5.57;;;;;;;21.26;52.94;102443.81;4900822;29;20464;-81
2021/07/22 08:16:55;;;;;;;9.70;5.30;;;;;;;21.59;51.28;102432.50;4900865;29;20044;-81
2021/07/22 08:19:20;;;;;;;6.78;5.43;;;;;;;21.50;51.10;102434.03;4917568;29;20036;-81
2021/07/22 08:21:46;;;;;;;6.28;4.78;;;;;;;20.94;52.20;102436.28;4917844;29;20032;-81
2021/07/22 08:24:12;;;;;;;7.28;5.40;;;;;;;21.06;52.18;102436.34;4917548;29;20032;-81
2021/07/22 08:26:37;;;;;;;6.13;4.82;;;;;;;21.15;51.17;102432.97;4917745;29;20325;-81
2021/07/22 08:29:02;;;;;;;7.57;5.05;;;;;;;20.98;51.78;102431.53;4917602;29;20403;-81
2021/07/22 08:31:28;;;;;;;7.32;5.07;;;;;;;21.59;51.38;102435.19;4917354;29;20395;-81
2021/07/22 08:37:10;;;;;;;;;;;;;;;21.20;52.21;102425.44;4843645;29;20097;-93
2021/07/22 08:39:51;;;;;;;7.50;5.07;;;;;;;21.12;52.49;102436.78;4847021;29;19908;-93
2021/07/22 08:42:25;;;;;;;6.18;4.72;;;;;;;21.09;51.60;102431.63;4851226;29;20058;-91
2021/07/22 08:44:53;;;;;;;6.65;5.25;;;;;;;21.22;51.48;102438.78;4835604;29;20018;-94
2021/07/22 08:47:40;;;;;;;7.80;5.13;;;;;;;21.14;51.23;102436.66;4819664;29;20082;-91
2021/07/22 08:50:22;;;;;;;6.82;4.82;;;;;;;21.16;50.51;102424.81;4843177;29;20046;-92
2021/07/22 08:53:01;;;;;;;8.60;5.43;;;;;;;21.67;49.45;102427.38;4798623;29;20562;-94
2021/07/22 08:55:39;;;;;;;7.47;5.47;;;;;;;21.75;49.33;102424.97;4798696;29;20068;-94
2021/07/22 08:58:09;;;;;;;7.03;4.53;;;;;;;21.70;49.17;102435.22;4812565;29;20041;-92
2021/07/22 09:00:35;;;;;;;7.95;4.68;;;;;;;22.08;48.05;102427.03;4782890;29;20053;-94
2021/07/22 09:03:18;;;;;;;6.40;4.78;;;;;;;22.67;46.70;102425.19;4798654;29;20042;-95
2021/07/22 09:05:48;;;;;;;5.70;4.60;;;;;;;23.26;45.01;102431.22;4822438;29;20066;-94
2021/07/22 09:08:33;;;;;;;5.80;4.30;;;;;;;22.96;46.26;102432.75;4883185;29;20024;-92
2021/07/22 09:11:36;;;;;;;5.30;4.20;;;;;;;24.62;41.83;102430.63;4888253;29;20042;-93
2021/07/22 09:14:25;;;;;;;5.40;4.47;;;;;;;24.82;42.09;102440.66;4893245;29;20049;-93
2021/07/22 09:16:57;;;;;;;5.65;4.55;;;;;;;24.92;41.34;102438.00;4877893;29;20044;-93
2021/07/22 09:19:43;;;;;;;6.93;4.50;;;;;;;25.71;39.59;102430.88;4864209;29;20032;-90
2021/07/22 09:22:24;;;;;;;6.20;4.22;;;;;;;26.41;38.37;102430.72;4864336;29;20060;-91
2021/07/22 09:24:55;;;;;;;5.35;4.40;;;;;;;25.80;39.77;102429.13;4867013;29;20100;-92
2021/07/22 09:28:11;;;;;;;6.15;4.28;;;;;;;25.87;39.07;102429.44;4872360;29;20057;-89
2021/07/22 09:31:23;;;;;;;5.22;4.13;;;;;;;25.27;39.98;102428.53;4792373;30;20107;-89
2021/07/22 09:35:11;;;;;;;;;;;;;;;;;;;;;
2021/07/22 09:38:24;;;;;;;;;;;;;;;;;;;;;
2021/07/22 09:44:33;;;;;;;5.72;4.32;;;;;;;25.71;39.10;102438.13;4700494;30;20049;-94
2021/07/22 09:47:51;;;;;;;5.47;4.35;;;;;;;24.54;41.62;102443.13;4667691;30;20058;-92
2021/07/22 09:51:25;;;;;;;8.13;5.38;;;;;;;24.21;42.48;102438.69;4601404;30;20046;-92
2021/07/22 09:54:54;;;;;;;5.43;4.20;;;;;;;24.67;40.44;102454.56;4652672;30;20031;-93
2021/07/22 09:57:57;;;;;;;5.38;4.20;;;;;;;26.31;37.18;102447.03;4747186;23;20087;-91
2021/07/22 10:03:59;;;;;;;6.90;4.20;;;;;;;27.38;35.35;102443.91;4833033;29;20058;-92
2021/07/22 10:06:28;;;;;;;5.22;3.75;;;;;;;26.97;36.42;102447.88;4845853;29;20034;-92
2021/07/22 10:08:59;;;;;;;6.15;4.35;;;;;;;27.16;36.06;102439.81;4784996;29;20035;-92
2021/07/22 10:11:33;;;;;;;5.13;4.00;;;;;;;27.40;35.31;102447.34;4799377;29;20490;-92
2021/07/22 10:14:05;;;;;;;7.40;4.35;;;;;;;27.40;35.39;102435.59;4799836;29;20108;-91
2021/07/22 10:16:31;;;;;;;5.10;3.85;;;;;;;27.21;36.15;102437.47;4785528;29;20026;-93
2021/07/22 10:19:00;;;;;;;6.30;4.47;;;;;;;25.75;37.94;102436.84;4796515;29;20059;-93
2021/07/22 10:21:36;;;;;;;6.60;4.03;;;;;;;25.08;38.67;102432.06;4794755;29;20099;-93
2021/07/22 10:24:12;;;;;;;6.00;3.90;;;;;;;24.66;40.38;102428.53;4781448;29;20051;-91
2021/07/22 10:27:42;;;;;;;8.07;4.00;;;;;;;25.84;38.49;102433.25;4781048;29;20434;-93
2021/07/22 10:31:29;;;;;;;4.60;3.40;;;;;;;26.91;35.96;102434.06;4796409;29;20455;-94
2021/07/22 10:33:58;;;;;;;4.15;3.70;;;;;;;26.40;36.74;102429.88;4745510;29;20549;-93
2021/07/22 10:36:27;;;;;;;5.78;4.32;;;;;;;26.67;37.01;102433.63;4750186;30;20074;-93
2021/07/22 10:38:56;;;;;;;5.20;3.85;;;;;;;27.13;35.77;102421.94;4757263;30;20039;-92
2021/07/22 10:42:29;;;;;;;4.43;3.60;;;;;;;27.24;34.92;102429.00;4809071;29;20098;-92
2021/07/22 10:45:55;;;;;;;4.43;3.90;;;;;;;27.80;34.84;102419.84;4724133;30;20136;-92
2021/07/22 10:53:30;;;;;;;4.68;3.70;;;;;;;26.07;37.16;102416.69;4674055;30;20062;-92
2021/07/22 10:56:07;;;;;;;5.40;3.90;;;;;;;25.83;37.72;102422.56;4674424;30;20054;-93
2021/07/22 10:58:36;;;;;;;4.07;3.60;;;;;;;25.84;37.13;102417.00;4646234;30;20073;-91
2021/07/22 11:01:43;;;;;;;6.05;3.38;;;;;;;26.29;36.04;102411.03;4647468;30;20093;-92
2021/07/22 11:04:45;;;;;;;4.88;3.40;;;;;;;26.11;36.53;102411.81;4675758;30;20077;-92
2021/07/22 11:07:24;;;;;;;4.18;3.13;;;;;;;26.37;35.87;102417.47;4675521;30;20052;-91
2021/07/22 11:10:18;;;;;;;7.10;4.00;;;;;;;26.41;35.05;102409.03;4647219;30;20085;-93
2021/07/22 11:12:49;;;;;;;5.55;3.63;;;;;;;26.10;36.46;102405.56;4668505;30;20057;-91
2021/07/22 11:16:03;;;;;;;4.43;3.80;;;;;;;26.12;36.15;102405.41;4693791;30;20118;-92
2021/07/22 11:19:13;;;;;;;6.13;3.63;;;;;;;25.95;37.51;102415.16;4773876;29;20485;-93
2021/07/22 11:21:50;;;;;;;5.55;4.22;;;;;;;26.05;37.33;102401.56;4726239;30;20069;-92
2021/07/22 11:24:43;;;;;;;6.78;4.30;;;;;;;24.94;39.34;102400.84;4679889;30;20045;-90
2021/07/22 11:27:11;;;;;;;4.90;4.15;;;;;;;24.82;39.93;102402.78;4737878;30;20099;-92
2021/07/22 11:33:15;;;;;;;6.68;4.30;;;;;;;24.54;40.82;102399.88;4719604;30;20038;-91
2021/07/22 11:35:45;;;;;;;5.95;4.25;;;;;;;25.09;38.55;102395.88;4713056;30;20061;-92
2021/07/22 11:38:37;;;;;;;5.28;3.97;;;;;;;25.35;38.27;102393.50;4715415;30;20051;-92
2021/07/22 11:41:36;;;;;;;7.28;4.60;;;;;;;25.27;38.57;102393.34;4647053;30;20051;-92
2021/07/22 11:44:12;;;;;;;;;;;;;;;;;;;;;
2021/07/22 11:46:57;;;;;;;6.07;4.15;;;;;;;25.17;38.08;102379.81;4659176;30;20042;-91
2021/07/22 11:49:44;;;;;;;;;;;;;;;;;;;;;
2021/07/22 11:52:58;;;;;;;5.22;4.13;;;;;;;25.39;38.25;102388.66;4673896;30;20051;-91
2021/07/22 11:55:46;;;;;;;6.13;4.10;;;;;;;25.41;37.85;102380.38;4648771;30;20039;-93
2021/07/22 11:58:25;;;;;;;5.43;3.97;;;;;;;25.28;38.49;102380.66;4682812;30;20042;-92
2021/07/22 12:01:23;;;;;;;5.85;4.03;;;;;;;24.58;38.85;102393.19;4668869;30;20085;-96